createdAt,value
2022-08-12T00:02:49.613Z,3.63
2022-08-12T00:09:10.933Z,3.50
2022-08-12T00:15:35.386Z,3.67
2022-08-12T00:21:57.154Z,3.90
2022-08-12T00:28:18.027Z,3.75
2022-08-12T00:34:38.415Z,3.50
2022-08-12T00:41:00.805Z,3.90
2022-08-12T00:47:02.792Z,4.28
2022-08-12T00:53:07.074Z,4.00
2022-08-12T00:59:09.296Z,4.10
2022-08-12T01:05:32.677Z,4.20
2022-08-12T01:11:34.655Z,4.53
2022-08-12T01:17:36.755Z,4.10
2022-08-12T01:23:46.967Z,4.20
2022-08-12T01:29:55.127Z,3.97
2022-08-12T01:36:08.377Z,4.00
2022-08-12T01:42:11.421Z,4.68
2022-08-12T01:48:37.022Z,4.13
2022-08-12T01:54:44.803Z,3.92
2022-08-12T02:07:37.433Z,4.03
2022-08-12T02:14:02.049Z,4.72
2022-08-12T02:20:15.730Z,4.50
2022-08-12T02:26:19.967Z,5.00
2022-08-12T02:32:22.374Z,4.50
2022-08-12T02:38:27.789Z,4.78
2022-08-12T02:44:37.404Z,5.00
2022-08-12T02:50:50.851Z,4.95
2022-08-12T02:56:54.007Z,4.93
2022-08-12T03:02:58.589Z,5.13
2022-08-12T03:09:04.640Z,5.50
2022-08-12T03:15:10.956Z,4.75
2022-08-12T03:21:15.582Z,5.00
2022-08-12T03:27:17.779Z,5.32
2022-08-12T03:33:21.181Z,4.80
2022-08-12T03:39:40.727Z,4.80
2022-08-12T03:46:02.110Z,4.90
2022-08-12T03:52:23.579Z,5.32
2022-08-12T03:58:44.537Z,5.50
2022-08-12T04:04:47.300Z,5.40
2022-08-12T04:11:09.908Z,5.25
2022-08-12T04:17:12.433Z,5.20
2022-08-12T04:23:17.415Z,5.43
2022-08-12T04:29:22.035Z,4.90
2022-08-12T04:35:43.975Z,5.38
2022-08-12T04:41:58.464Z,5.60
2022-08-12T04:48:02.054Z,4.55
2022-08-12T04:54:05.182Z,5.20
2022-08-12T05:00:12.572Z,5.10
2022-08-12T05:06:20.857Z,5.60
2022-08-12T05:12:34.456Z,5.78
2022-08-12T05:18:38.509Z,6.45
2022-08-12T05:24:41.607Z,5.78
2022-08-12T05:30:49.236Z,4.70
2022-08-12T05:36:51.065Z,4.40
2022-08-12T05:42:55.963Z,4.43
2022-08-12T05:49:03.522Z,4.22
2022-08-12T05:55:05.678Z,4.20
2022-08-12T06:02:10.464Z,4.38
2022-08-12T06:08:00.076Z,4.03
2022-08-12T06:13:58.467Z,3.55
2022-08-12T06:20:28.418Z,4.03
2022-08-12T06:26:26.221Z,4.25
2022-08-12T06:32:29.608Z,5.00
2022-08-12T06:38:34.950Z,4.80
2022-08-12T06:44:41.875Z,3.80
2022-08-12T06:50:44.457Z,4.32
2022-08-12T06:57:03.708Z,3.97
2022-08-12T07:03:16.264Z,3.85
2022-08-12T07:10:03.905Z,3.92
2022-08-12T07:15:50.277Z,4.05
2022-08-12T07:22:02.392Z,3.60
2022-08-12T07:28:16.659Z,4.00
2022-08-12T07:34:19.017Z,3.28
2022-08-12T07:40:20.910Z,3.20
2022-08-12T07:46:31.235Z,3.55
2022-08-12T07:52:34.170Z,3.10
2022-08-12T07:58:45.253Z,2.80
2022-08-12T08:04:57.683Z,3.05
2022-08-12T08:11:19.527Z,2.95
2022-08-12T08:17:21.650Z,2.70
2022-08-12T08:23:46.348Z,2.88
2022-08-12T08:29:48.982Z,2.15
2022-08-12T08:35:50.751Z,2.25
2022-08-12T08:42:19.821Z,2.20
2022-08-12T08:48:24.753Z,2.05
2022-08-12T08:54:29.215Z,2.00
2022-08-12T09:00:31.112Z,1.92
2022-08-12T09:06:37.130Z,2.08
2022-08-12T09:13:01.953Z,2.00
2022-08-12T09:19:06.328Z,1.83
2022-08-12T09:25:33.268Z,1.80
2022-08-12T09:38:00.747Z,1.58
2022-08-12T09:44:39.579Z,1.63
2022-08-12T09:50:41.647Z,1.90
2022-08-12T09:56:59.710Z,2.00
2022-08-12T10:03:32.566Z,1.70
2022-08-12T10:09:57.479Z,1.30
2022-08-12T10:16:02.033Z,1.90
2022-08-12T10:22:17.151Z,1.70
2022-08-12T10:29:01.856Z,1.60
2022-08-12T10:35:05.401Z,1.65
2022-08-12T10:41:57.348Z,1.60
2022-08-12T10:48:07.418Z,1.40
2022-08-12T10:54:13.612Z,1.48
2022-08-12T11:00:34.944Z,1.55
2022-08-12T11:07:06.817Z,1.30
2022-08-12T11:13:03.255Z,1.65
2022-08-12T11:19:12.093Z,1.40
2022-08-12T11:25:14.876Z,1.60
2022-08-12T11:31:17.404Z,1.75
2022-08-12T11:37:26.401Z,1.60
2022-08-12T11:43:30.855Z,1.20
2022-08-12T11:49:32.883Z,1.55
2022-08-12T11:55:35.587Z,1.40
2022-08-12T12:02:00.731Z,1.17
2022-08-12T12:08:38.223Z,1.20
2022-08-12T12:14:38.210Z,1.30
2022-08-12T12:20:40.938Z,1.27
2022-08-12T12:26:42.755Z,1.02
2022-08-12T12:32:53.350Z,1.00
2022-08-12T12:38:55.434Z,1.30
2022-08-12T12:44:57.247Z,1.00
2022-08-12T12:51:48.399Z,0.90
2022-08-12T12:58:00.727Z,1.10
2022-08-12T13:04:03.219Z,1.05
2022-08-12T13:10:05.378Z,0.93
2022-08-12T13:16:14.437Z,1.25
2022-08-12T13:22:23.520Z,0.80
2022-08-12T13:28:28.654Z,1.02
2022-08-12T13:34:34.954Z,0.82
2022-08-12T13:40:40.975Z,0.93
2022-08-12T13:46:42.798Z,0.93
2022-08-12T13:52:46.356Z,0.90
2022-08-12T13:58:52.727Z,0.80
2022-08-12T14:04:56.638Z,0.70
2022-08-12T14:10:58.990Z,0.60
2022-08-12T14:17:02.375Z,0.60
2022-08-12T14:24:00.957Z,0.82
2022-08-12T14:29:38.151Z,0.52
2022-08-12T14:35:53.364Z,0.60
2022-08-12T14:41:57.410Z,0.60
2022-08-12T14:47:59.329Z,0.60
2022-08-12T14:56:59.270Z,0.70
2022-08-12T15:00:47.336Z,1.38
2022-08-12T15:06:53.322Z,0.77
2022-08-12T15:12:58.264Z,0.60
2022-08-12T15:19:01.460Z,0.70
2022-08-12T15:25:17.835Z,0.60
2022-08-12T15:31:27.918Z,0.88
2022-08-12T15:38:09.005Z,0.73
2022-08-12T15:44:37.323Z,0.75
2022-08-12T15:50:32.384Z,0.70
2022-08-12T15:56:37.221Z,0.80
2022-08-12T16:02:50.569Z,0.70
2022-08-12T16:08:58.011Z,0.80
2022-08-12T16:15:04.341Z,1.00
2022-08-12T16:21:51.620Z,1.02
2022-08-12T16:27:51.680Z,0.98
2022-08-12T16:33:59.488Z,0.90
2022-08-12T16:40:06.535Z,0.90
2022-08-12T16:46:31.318Z,0.80
2022-08-12T16:52:34.849Z,0.80
2022-08-12T16:58:40.485Z,0.90
2022-08-12T17:04:52.873Z,0.73
2022-08-12T17:10:57.719Z,0.85
2022-08-12T17:17:04.455Z,0.88
2022-08-12T17:23:14.435Z,1.33
2022-08-12T17:29:32.405Z,0.88
2022-08-12T17:35:49.983Z,0.93
2022-08-12T17:41:56.566Z,0.70
2022-08-12T17:48:05.295Z,0.90
2022-08-12T17:54:12.660Z,0.90
2022-08-12T18:00:16.678Z,1.02
2022-08-12T18:06:21.172Z,1.00
2022-08-12T18:12:42.735Z,2.85
2022-08-12T18:18:50.602Z,1.10
2022-08-12T18:25:03.937Z,1.10
2022-08-12T18:31:06.921Z,0.90
2022-08-12T18:37:40.995Z,1.23
2022-08-12T18:43:44.711Z,0.90
2022-08-12T18:49:57.903Z,1.00
2022-08-12T18:56:04.401Z,1.10
2022-08-12T19:02:19.134Z,1.58
2022-08-12T19:14:35.198Z,1.90
2022-08-12T19:20:39.273Z,1.40
2022-08-12T19:26:42.431Z,1.33
2022-08-12T19:32:48.986Z,1.50
2022-08-12T19:45:04.537Z,1.33
2022-08-12T19:51:22.687Z,1.40
2022-08-12T19:57:28.985Z,1.40
2022-08-12T20:03:39.796Z,1.20
2022-08-12T20:09:47.774Z,1.50
2022-08-12T20:15:58.791Z,1.30
2022-08-12T20:22:03.415Z,1.40
2022-08-12T20:28:09.557Z,1.30
2022-08-12T20:34:12.106Z,1.30
2022-08-12T20:40:14.318Z,1.50
2022-08-12T20:46:19.108Z,1.60
2022-08-12T20:52:25.505Z,1.38
2022-08-12T20:58:41.756Z,1.50
2022-08-12T21:05:16.099Z,1.70
2022-08-12T21:11:26.406Z,1.70
2022-08-12T21:18:08.792Z,1.77
2022-08-12T21:23:59.756Z,1.45
2022-08-12T21:30:06.055Z,1.58
2022-08-12T21:36:14.519Z,1.60
2022-08-12T21:42:32.691Z,1.80
2022-08-12T21:48:57.543Z,1.80
2022-08-12T21:55:18.056Z,1.42
2022-08-12T22:07:45.937Z,1.80
2022-08-12T22:14:07.274Z,1.70
2022-08-12T22:20:17.969Z,1.90
2022-08-12T22:26:37.335Z,1.80
2022-08-12T22:32:55.200Z,1.70
2022-08-12T22:39:26.370Z,1.70
2022-08-12T22:46:26.693Z,1.80
2022-08-12T22:52:38.669Z,1.58
2022-08-12T22:58:41.576Z,1.90
2022-08-12T23:04:43.489Z,1.83
2022-08-12T23:10:48.921Z,2.13
2022-08-12T23:16:51.716Z,1.88
2022-08-12T23:22:55.966Z,2.08
2022-08-12T23:29:30.149Z,2.20
2022-08-12T23:35:45.827Z,1.98
2022-08-12T23:42:17.967Z,1.70
2022-08-12T23:48:23.250Z,2.22
2022-08-12T23:54:44.054Z,2.08
